sensor_id;sensor_type;location;lat;lon;timestamp;temperature;humidity
17146;DHT22;8688;54.444;18.444;2022-09-12T00:00:43;10.00;99.90
17146;DHT22;8688;54.444;18.444;2022-09-12T00:03:11;9.90;99.90
17146;DHT22;8688;54.444;18.444;2022-09-12T00:05:40;9.90;99.90
17146;DHT22;8688;54.444;18.444;2022-09-12T00:08:09;9.90;99.90
17146;DHT22;8688;54.444;18.444;2022-09-12T00:10:39;9.90;99.90
17146;DHT22;8688;54.444;18.444;2022-09-12T00:13:08;9.90;99.90
17146;DHT22;8688;54.444;18.444;2022-09-12T00:15:37;9.90;99.90
17146;DHT22;8688;54.444;18.444;2022-09-12T00:18:05;9.80;99.90
17146;DHT22;8688;54.444;18.444;2022-09-12T00:20:32;9.80;99.90
17146;DHT22;8688;54.444;18.444;2022-09-12T00:23:00;9.80;99.90
17146;DHT22;8688;54.444;18.444;2022-09-12T00:25:27;9.70;99.90
17146;DHT22;8688;54.444;18.444;2022-09-12T00:27:57;9.80;99.90
17146;DHT22;8688;54.444;18.444;2022-09-12T00:30:25;9.70;99.90
17146;DHT22;8688;54.444;18.444;2022-09-12T00:32:52;9.70;99.90
17146;DHT22;8688;54.444;18.444;2022-09-12T00:35:19;9.70;99.90
17146;DHT22;8688;54.444;18.444;2022-09-12T00:37:47;9.70;99.90
17146;DHT22;8688;54.444;18.444;2022-09-12T00:40:14;9.70;99.90
17146;DHT22;8688;54.444;18.444;2022-09-12T00:42:41;9.60;99.90
17146;DHT22;8688;54.444;18.444;2022-09-12T00:45:28;9.60;99.90
17146;DHT22;8688;54.444;18.444;2022-09-12T00:47:59;9.70;99.90
17146;DHT22;8688;54.444;18.444;2022-09-12T00:50:28;9.60;99.90
17146;DHT22;8688;54.444;18.444;2022-09-12T00:52:58;9.70;99.90
17146;DHT22;8688;54.444;18.444;2022-09-12T00:55:32;9.70;99.90
17146;DHT22;8688;54.444;18.444;2022-09-12T00:58:03;9.70;99.90
17146;DHT22;8688;54.444;18.444;2022-09-12T01:00:34;9.60;99.90
17146;DHT22;8688;54.444;18.444;2022-09-12T01:03:04;9.60;99.90
17146;DHT22;8688;54.444;18.444;2022-09-12T01:05:34;9.60;99.90
17146;DHT22;8688;54.444;18.444;2022-09-12T01:08:03;9.60;99.90
17146;DHT22;8688;54.444;18.444;2022-09-12T01:10:33;9.60;99.90
17146;DHT22;8688;54.444;18.444;2022-09-12T01:13:04;9.60;99.90
17146;DHT22;8688;54.444;18.444;2022-09-12T01:15:33;9.60;99.90
17146;DHT22;8688;54.444;18.444;2022-09-12T01:18:10;9.60;99.90
17146;DHT22;8688;54.444;18.444;2022-09-12T01:20:56;9.60;99.90
17146;DHT22;8688;54.444;18.444;2022-09-12T01:24:08;9.60;99.90
17146;DHT22;8688;54.444;18.444;2022-09-12T01:26:57;9.60;99.90
17146;DHT22;8688;54.444;18.444;2022-09-12T01:32:54;9.60;99.90
17146;DHT22;8688;54.444;18.444;2022-09-12T01:35:30;9.50;99.90
17146;DHT22;8688;54.444;18.444;2022-09-12T01:38:07;9.50;99.90
17146;DHT22;8688;54.444;18.444;2022-09-12T01:40:43;9.50;99.90
17146;DHT22;8688;54.444;18.444;2022-09-12T01:43:18;9.50;99.90
17146;DHT22;8688;54.444;18.444;2022-09-12T01:45:55;9.60;99.90
17146;DHT22;8688;54.444;18.444;2022-09-12T01:48:28;9.50;99.90
17146;DHT22;8688;54.444;18.444;2022-09-12T01:51:00;9.60;99.90
17146;DHT22;8688;54.444;18.444;2022-09-12T01:53:34;9.60;99.90
17146;DHT22;8688;54.444;18.444;2022-09-12T01:56:09;9.60;99.90
17146;DHT22;8688;54.444;18.444;2022-09-12T01:58:41;9.60;99.90
17146;DHT22;8688;54.444;18.444;2022-09-12T02:01:12;9.60;99.90
17146;DHT22;8688;54.444;18.444;2022-09-12T02:03:45;9.60;99.90
17146;DHT22;8688;54.444;18.444;2022-09-12T02:06:18;9.70;99.90
17146;DHT22;8688;54.444;18.444;2022-09-12T02:08:50;9.60;99.90
17146;DHT22;8688;54.444;18.444;2022-09-12T02:11:18;9.70;99.90
17146;DHT22;8688;54.444;18.444;2022-09-12T02:13:49;9.60;99.90
17146;DHT22;8688;54.444;18.444;2022-09-12T02:16:23;9.70;99.90
17146;DHT22;8688;54.444;18.444;2022-09-12T02:18:56;9.70;99.90
17146;DHT22;8688;54.444;18.444;2022-09-12T02:21:27;9.70;99.90
17146;DHT22;8688;54.444;18.444;2022-09-12T02:24:01;9.70;99.90
17146;DHT22;8688;54.444;18.444;2022-09-12T02:26:33;9.70;99.90
17146;DHT22;8688;54.444;18.444;2022-09-12T02:29:03;9.70;99.90
17146;DHT22;8688;54.444;18.444;2022-09-12T02:31:35;9.70;99.90
17146;DHT22;8688;54.444;18.444;2022-09-12T02:34:21;9.70;99.90
17146;DHT22;8688;54.444;18.444;2022-09-12T02:37:02;9.70;99.90
17146;DHT22;8688;54.444;18.444;2022-09-12T02:39:31;9.70;99.90
17146;DHT22;8688;54.444;18.444;2022-09-12T02:42:00;9.70;99.90
17146;DHT22;8688;54.444;18.444;2022-09-12T02:44:29;9.70;99.90
17146;DHT22;8688;54.444;18.444;2022-09-12T02:46:59;9.60;99.90
17146;DHT22;8688;54.444;18.444;2022-09-12T02:49:29;9.60;99.90
17146;DHT22;8688;54.444;18.444;2022-09-12T02:51:57;9.60;99.90
17146;DHT22;8688;54.444;18.444;2022-09-12T02:54:25;9.60;99.90
17146;DHT22;8688;54.444;18.444;2022-09-12T02:56:53;9.60;99.90
17146;DHT22;8688;54.444;18.444;2022-09-12T02:59:22;9.60;99.90
17146;DHT22;8688;54.444;18.444;2022-09-12T03:02:08;9.60;99.90
17146;DHT22;8688;54.444;18.444;2022-09-12T03:04:52;9.60;99.90
17146;DHT22;8688;54.444;18.444;2022-09-12T03:07:33;9.60;99.90
17146;DHT22;8688;54.444;18.444;2022-09-12T03:10:09;9.60;99.90
17146;DHT22;8688;54.444;18.444;2022-09-12T03:12:46;9.50;99.90
17146;DHT22;8688;54.444;18.444;2022-09-12T03:15:27;9.50;99.90
17146;DHT22;8688;54.444;18.444;2022-09-12T03:18:07;9.50;99.90
17146;DHT22;8688;54.444;18.444;2022-09-12T03:20:44;9.50;99.90
17146;DHT22;8688;54.444;18.444;2022-09-12T03:23:21;9.50;99.90
17146;DHT22;8688;54.444;18.444;2022-09-12T03:25:54;9.50;99.90
17146;DHT22;8688;54.444;18.444;2022-09-12T03:28:23;9.40;99.90
17146;DHT22;8688;54.444;18.444;2022-09-12T03:30:50;9.40;99.90
17146;DHT22;8688;54.444;18.444;2022-09-12T03:33:20;9.40;99.90
17146;DHT22;8688;54.444;18.444;2022-09-12T03:35:50;9.40;99.90
17146;DHT22;8688;54.444;18.444;2022-09-12T03:38:18;9.40;99.90
17146;DHT22;8688;54.444;18.444;2022-09-12T03:40:46;9.40;99.90
17146;DHT22;8688;54.444;18.444;2022-09-12T03:43:13;9.40;99.90
17146;DHT22;8688;54.444;18.444;2022-09-12T03:45:40;9.40;99.90
17146;DHT22;8688;54.444;18.444;2022-09-12T03:48:08;9.40;99.90
17146;DHT22;8688;54.444;18.444;2022-09-12T03:50:35;9.40;99.90
17146;DHT22;8688;54.444;18.444;2022-09-12T03:53:04;9.40;99.90
17146;DHT22;8688;54.444;18.444;2022-09-12T03:55:31;9.40;99.90
17146;DHT22;8688;54.444;18.444;2022-09-12T03:57:58;9.40;99.90
17146;DHT22;8688;54.444;18.444;2022-09-12T04:00:26;9.40;99.90
17146;DHT22;8688;54.444;18.444;2022-09-12T04:02:54;9.50;99.90
17146;DHT22;8688;54.444;18.444;2022-09-12T04:05:22;9.50;99.90
17146;DHT22;8688;54.444;18.444;2022-09-12T04:07:49;9.50;99.90
17146;DHT22;8688;54.444;18.444;2022-09-12T04:10:18;9.50;99.90
17146;DHT22;8688;54.444;18.444;2022-09-12T04:12:45;9.40;99.90
17146;DHT22;8688;54.444;18.444;2022-09-12T04:15:13;9.40;99.90
17146;DHT22;8688;54.444;18.444;2022-09-12T04:17:40;9.40;99.90
17146;DHT22;8688;54.444;18.444;2022-09-12T04:20:08;9.40;99.90
17146;DHT22;8688;54.444;18.444;2022-09-12T04:22:35;9.40;99.90
17146;DHT22;8688;54.444;18.444;2022-09-12T04:25:03;9.40;99.90
17146;DHT22;8688;54.444;18.444;2022-09-12T04:27:33;9.40;99.90
17146;DHT22;8688;54.444;18.444;2022-09-12T04:30:00;9.40;99.90
17146;DHT22;8688;54.444;18.444;2022-09-12T04:32:29;9.40;99.90
17146;DHT22;8688;54.444;18.444;2022-09-12T04:34:57;9.40;99.90
17146;DHT22;8688;54.444;18.444;2022-09-12T04:37:24;9.40;99.90
17146;DHT22;8688;54.444;18.444;2022-09-12T04:39:51;9.40;99.90
17146;DHT22;8688;54.444;18.444;2022-09-12T04:42:22;9.40;99.90
17146;DHT22;8688;54.444;18.444;2022-09-12T04:44:51;9.40;99.90
17146;DHT22;8688;54.444;18.444;2022-09-12T04:47:19;9.50;99.90
17146;DHT22;8688;54.444;18.444;2022-09-12T04:49:47;9.40;99.90
17146;DHT22;8688;54.444;18.444;2022-09-12T04:52:15;9.50;99.90
17146;DHT22;8688;54.444;18.444;2022-09-12T04:54:43;9.50;99.90
17146;DHT22;8688;54.444;18.444;2022-09-12T04:57:10;9.50;99.90
17146;DHT22;8688;54.444;18.444;2022-09-12T04:59:38;9.50;99.90
17146;DHT22;8688;54.444;18.444;2022-09-12T05:02:07;9.60;99.90
17146;DHT22;8688;54.444;18.444;2022-09-12T05:04:34;9.60;99.90
17146;DHT22;8688;54.444;18.444;2022-09-12T05:07:02;9.60;99.90
17146;DHT22;8688;54.444;18.444;2022-09-12T05:09:30;9.70;99.90
17146;DHT22;8688;54.444;18.444;2022-09-12T05:11:57;9.70;99.90
17146;DHT22;8688;54.444;18.444;2022-09-12T05:14:25;9.70;99.90
17146;DHT22;8688;54.444;18.444;2022-09-12T05:16:53;9.70;99.90
17146;DHT22;8688;54.444;18.444;2022-09-12T05:19:26;9.80;99.90
17146;DHT22;8688;54.444;18.444;2022-09-12T05:21:53;9.90;99.90
17146;DHT22;8688;54.444;18.444;2022-09-12T05:24:21;9.90;99.90
17146;DHT22;8688;54.444;18.444;2022-09-12T05:26:48;9.90;99.90
17146;DHT22;8688;54.444;18.444;2022-09-12T05:29:16;9.90;99.90
17146;DHT22;8688;54.444;18.444;2022-09-12T05:31:43;10.00;99.90
17146;DHT22;8688;54.444;18.444;2022-09-12T05:34:12;10.10;99.90
17146;DHT22;8688;54.444;18.444;2022-09-12T05:36:41;10.20;99.90
17146;DHT22;8688;54.444;18.444;2022-09-12T05:39:08;10.30;99.90
17146;DHT22;8688;54.444;18.444;2022-09-12T05:41:37;10.40;99.90
17146;DHT22;8688;54.444;18.444;2022-09-12T05:44:05;10.50;99.90
17146;DHT22;8688;54.444;18.444;2022-09-12T05:46:36;10.60;99.90
17146;DHT22;8688;54.444;18.444;2022-09-12T05:49:04;10.70;99.90
17146;DHT22;8688;54.444;18.444;2022-09-12T05:51:36;10.80;99.90
17146;DHT22;8688;54.444;18.444;2022-09-12T05:54:07;10.90;99.90
17146;DHT22;8688;54.444;18.444;2022-09-12T05:56:37;11.10;99.90
17146;DHT22;8688;54.444;18.444;2022-09-12T05:59:08;11.20;99.90
17146;DHT22;8688;54.444;18.444;2022-09-12T06:01:37;11.30;99.90
17146;DHT22;8688;54.444;18.444;2022-09-12T06:04:05;11.40;99.90
17146;DHT22;8688;54.444;18.444;2022-09-12T06:06:36;11.40;99.90
17146;DHT22;8688;54.444;18.444;2022-09-12T06:09:05;11.50;99.90
17146;DHT22;8688;54.444;18.444;2022-09-12T06:11:35;11.70;99.90
17146;DHT22;8688;54.444;18.444;2022-09-12T06:14:05;11.80;99.90
17146;DHT22;8688;54.444;18.444;2022-09-12T06:16:33;11.90;99.90
17146;DHT22;8688;54.444;18.444;2022-09-12T06:19:04;12.00;99.90
17146;DHT22;8688;54.444;18.444;2022-09-12T06:21:35;12.00;99.90
17146;DHT22;8688;54.444;18.444;2022-09-12T06:24:06;11.90;99.90
17146;DHT22;8688;54.444;18.444;2022-09-12T06:26:34;12.00;99.90
17146;DHT22;8688;54.444;18.444;2022-09-12T06:29:01;12.00;99.90
17146;DHT22;8688;54.444;18.444;2022-09-12T06:31:30;12.10;99.90
17146;DHT22;8688;54.444;18.444;2022-09-12T06:34:00;12.20;99.90
17146;DHT22;8688;54.444;18.444;2022-09-12T06:36:29;12.30;99.90
17146;DHT22;8688;54.444;18.444;2022-09-12T06:38:59;12.40;99.90
17146;DHT22;8688;54.444;18.444;2022-09-12T06:41:29;12.50;99.90
17146;DHT22;8688;54.444;18.444;2022-09-12T06:43:58;12.60;99.90
17146;DHT22;8688;54.444;18.444;2022-09-12T06:46:26;12.50;99.90
17146;DHT22;8688;54.444;18.444;2022-09-12T06:48:55;12.60;99.90
17146;DHT22;8688;54.444;18.444;2022-09-12T06:51:24;12.70;99.90
17146;DHT22;8688;54.444;18.444;2022-09-12T06:53:54;12.70;99.90
17146;DHT22;8688;54.444;18.444;2022-09-12T06:56:23;12.80;99.90
17146;DHT22;8688;54.444;18.444;2022-09-12T06:58:54;12.90;99.90
17146;DHT22;8688;54.444;18.444;2022-09-12T07:01:24;12.90;99.90
17146;DHT22;8688;54.444;18.444;2022-09-12T07:03:53;13.10;99.90
17146;DHT22;8688;54.444;18.444;2022-09-12T07:06:22;13.40;1.00
17146;DHT22;8688;54.444;18.444;2022-09-12T07:08:56;13.60;1.00
17146;DHT22;8688;54.444;18.444;2022-09-12T07:11:25;13.70;1.00
17146;DHT22;8688;54.444;18.444;2022-09-12T07:13:56;13.80;99.90
17146;DHT22;8688;54.444;18.444;2022-09-12T07:16:24;13.90;1.00
17146;DHT22;8688;54.444;18.444;2022-09-12T07:18:53;13.90;97.60
17146;DHT22;8688;54.444;18.444;2022-09-12T07:21:20;14.00;1.00
17146;DHT22;8688;54.444;18.444;2022-09-12T07:23:48;14.00;88.80
17146;DHT22;8688;54.444;18.444;2022-09-12T07:26:17;14.10;1.00
17146;DHT22;8688;54.444;18.444;2022-09-12T07:28:45;14.10;1.00
17146;DHT22;8688;54.444;18.444;2022-09-12T07:31:18;14.20;99.90
17146;DHT22;8688;54.444;18.444;2022-09-12T07:33:46;14.20;99.90
17146;DHT22;8688;54.444;18.444;2022-09-12T07:36:16;14.30;1.00
17146;DHT22;8688;54.444;18.444;2022-09-12T07:38:44;14.40;1.00
17146;DHT22;8688;54.444;18.444;2022-09-12T07:41:12;14.40;1.00
17146;DHT22;8688;54.444;18.444;2022-09-12T07:43:40;14.60;1.00
17146;DHT22;8688;54.444;18.444;2022-09-12T07:46:08;14.60;1.00
17146;DHT22;8688;54.444;18.444;2022-09-12T07:48:38;14.70;1.00
17146;DHT22;8688;54.444;18.444;2022-09-12T07:51:08;14.80;99.90
17146;DHT22;8688;54.444;18.444;2022-09-12T07:53:38;14.90;1.00
17146;DHT22;8688;54.444;18.444;2022-09-12T07:56:06;14.90;99.90
17146;DHT22;8688;54.444;18.444;2022-09-12T07:58:36;14.90;99.90
17146;DHT22;8688;54.444;18.444;2022-09-12T08:01:04;14.90;1.00
17146;DHT22;8688;54.444;18.444;2022-09-12T08:03:34;14.90;99.90
17146;DHT22;8688;54.444;18.444;2022-09-12T08:06:04;15.00;72.90
17146;DHT22;8688;54.444;18.444;2022-09-12T08:08:33;15.00;1.00
17146;DHT22;8688;54.444;18.444;2022-09-12T08:11:02;15.00;1.00
17146;DHT22;8688;54.444;18.444;2022-09-12T08:13:31;15.10;1.00
17146;DHT22;8688;54.444;18.444;2022-09-12T08:16:00;15.20;69.70
17146;DHT22;8688;54.444;18.444;2022-09-12T08:18:28;15.10;1.00
17146;DHT22;8688;54.444;18.444;2022-09-12T08:20:57;15.20;1.00
17146;DHT22;8688;54.444;18.444;2022-09-12T08:23:27;15.30;1.00
17146;DHT22;8688;54.444;18.444;2022-09-12T08:25:55;15.30;1.00
17146;DHT22;8688;54.444;18.444;2022-09-12T08:28:23;15.50;1.00
17146;DHT22;8688;54.444;18.444;2022-09-12T08:30:51;15.50;1.00
17146;DHT22;8688;54.444;18.444;2022-09-12T08:33:18;15.50;1.00
17146;DHT22;8688;54.444;18.444;2022-09-12T08:35:46;15.40;1.00
17146;DHT22;8688;54.444;18.444;2022-09-12T08:38:13;15.30;1.00
17146;DHT22;8688;54.444;18.444;2022-09-12T08:40:47;15.40;1.00
17146;DHT22;8688;54.444;18.444;2022-09-12T08:43:27;15.70;99.90
17146;DHT22;8688;54.444;18.444;2022-09-12T08:46:03;15.90;1.00
17146;DHT22;8688;54.444;18.444;2022-09-12T08:48:34;16.00;1.00
17146;DHT22;8688;54.444;18.444;2022-09-12T08:51:02;15.70;99.90
17146;DHT22;8688;54.444;18.444;2022-09-12T08:53:31;15.40;99.90
17146;DHT22;8688;54.444;18.444;2022-09-12T08:56:05;15.60;99.90
17146;DHT22;8688;54.444;18.444;2022-09-12T08:58:39;15.80;99.90
17146;DHT22;8688;54.444;18.444;2022-09-12T09:01:09;16.10;1.00
17146;DHT22;8688;54.444;18.444;2022-09-12T09:06:49;16.10;99.90
17146;DHT22;8688;54.444;18.444;2022-09-12T09:09:27;16.10;99.90
17146;DHT22;8688;54.444;18.444;2022-09-12T09:12:05;16.10;99.90
17146;DHT22;8688;54.444;18.444;2022-09-12T09:14:47;15.90;99.90
17146;DHT22;8688;54.444;18.444;2022-09-12T09:17:23;15.80;99.90
17146;DHT22;8688;54.444;18.444;2022-09-12T09:19:57;15.80;99.90
17146;DHT22;8688;54.444;18.444;2022-09-12T09:22:35;16.00;99.90
17146;DHT22;8688;54.444;18.444;2022-09-12T09:25:10;16.20;99.90
17146;DHT22;8688;54.444;18.444;2022-09-12T09:27:45;16.30;99.90
17146;DHT22;8688;54.444;18.444;2022-09-12T09:30:16;16.30;99.90
17146;DHT22;8688;54.444;18.444;2022-09-12T09:32:47;16.00;99.90
17146;DHT22;8688;54.444;18.444;2022-09-12T09:35:18;15.70;99.90
17146;DHT22;8688;54.444;18.444;2022-09-12T09:38:00;15.50;99.90
17146;DHT22;8688;54.444;18.444;2022-09-12T09:40:36;15.50;99.90
17146;DHT22;8688;54.444;18.444;2022-09-12T09:43:14;15.80;99.90
17146;DHT22;8688;54.444;18.444;2022-09-12T09:45:44;16.10;99.90
17146;DHT22;8688;54.444;18.444;2022-09-12T09:48:16;16.30;99.90
17146;DHT22;8688;54.444;18.444;2022-09-12T09:50:46;16.40;99.90
17146;DHT22;8688;54.444;18.444;2022-09-12T09:53:26;16.30;99.90
17146;DHT22;8688;54.444;18.444;2022-09-12T09:55:56;16.00;99.90
17146;DHT22;8688;54.444;18.444;2022-09-12T09:58:30;15.80;97.90
17146;DHT22;8688;54.444;18.444;2022-09-12T10:00:59;16.00;99.90
17146;DHT22;8688;54.444;18.444;2022-09-12T10:03:30;16.30;99.90
17146;DHT22;8688;54.444;18.444;2022-09-12T10:06:00;16.60;96.10
17146;DHT22;8688;54.444;18.444;2022-09-12T10:08:29;16.40;19.80
17146;DHT22;8688;54.444;18.444;2022-09-12T10:11:02;16.20;1.00
17146;DHT22;8688;54.444;18.444;2022-09-12T10:13:40;16.20;1.00
17146;DHT22;8688;54.444;18.444;2022-09-12T10:16:17;16.40;1.00
17146;DHT22;8688;54.444;18.444;2022-09-12T10:18:45;16.50;1.00
17146;DHT22;8688;54.444;18.444;2022-09-12T10:21:15;16.70;1.00
17146;DHT22;8688;54.444;18.444;2022-09-12T10:23:45;16.90;1.00
17146;DHT22;8688;54.444;18.444;2022-09-12T10:26:15;16.80;1.00
17146;DHT22;8688;54.444;18.444;2022-09-12T10:28:48;16.50;1.00
17146;DHT22;8688;54.444;18.444;2022-09-12T10:31:23;16.20;1.00
17146;DHT22;8688;54.444;18.444;2022-09-12T10:33:55;16.10;1.00
17146;DHT22;8688;54.444;18.444;2022-09-12T10:36:23;16.30;1.00
17146;DHT22;8688;54.444;18.444;2022-09-12T10:38:54;16.40;1.00
17146;DHT22;8688;54.444;18.444;2022-09-12T10:41:23;16.60;1.00
17146;DHT22;8688;54.444;18.444;2022-09-12T10:43:52;16.70;1.00
17146;DHT22;8688;54.444;18.444;2022-09-12T10:46:31;16.90;1.00
17146;DHT22;8688;54.444;18.444;2022-09-12T10:49:22;16.90;1.00
17146;DHT22;8688;54.444;18.444;2022-09-12T10:51:50;16.70;1.00
17146;DHT22;8688;54.444;18.444;2022-09-12T10:54:20;16.40;1.00
17146;DHT22;8688;54.444;18.444;2022-09-12T10:57:18;16.40;1.00
17146;DHT22;8688;54.444;18.444;2022-09-12T11:00:10;16.60;1.00
17146;DHT22;8688;54.444;18.444;2022-09-12T11:02:50;17.00;1.00
17146;DHT22;8688;54.444;18.444;2022-09-12T11:05:33;17.20;1.00
17146;DHT22;8688;54.444;18.444;2022-09-12T11:08:15;17.20;1.00
17146;DHT22;8688;54.444;18.444;2022-09-12T11:10:48;16.70;1.00
17146;DHT22;8688;54.444;18.444;2022-09-12T11:13:27;16.40;1.00
17146;DHT22;8688;54.444;18.444;2022-09-12T11:16:11;16.60;1.00
17146;DHT22;8688;54.444;18.444;2022-09-12T11:18:56;17.00;1.00
17146;DHT22;8688;54.444;18.444;2022-09-12T11:21:45;17.30;1.00
17146;DHT22;8688;54.444;18.444;2022-09-12T11:24:26;17.40;1.00
17146;DHT22;8688;54.444;18.444;2022-09-12T11:27:04;17.30;1.00
17146;DHT22;8688;54.444;18.444;2022-09-12T11:29:46;16.90;1.00
17146;DHT22;8688;54.444;18.444;2022-09-12T11:35:21;16.80;1.00
17146;DHT22;8688;54.444;18.444;2022-09-12T11:38:03;17.00;1.00
17146;DHT22;8688;54.444;18.444;2022-09-12T11:40:39;17.00;1.00
17146;DHT22;8688;54.444;18.444;2022-09-12T11:43:20;17.30;1.00
17146;DHT22;8688;54.444;18.444;2022-09-12T11:45:50;17.40;1.00
17146;DHT22;8688;54.444;18.444;2022-09-12T11:48:31;17.50;1.00
17146;DHT22;8688;54.444;18.444;2022-09-12T11:51:03;17.70;1.00
17146;DHT22;8688;54.444;18.444;2022-09-12T11:53:37;17.70;1.00
17146;DHT22;8688;54.444;18.444;2022-09-12T11:56:09;17.70;1.00
17146;DHT22;8688;54.444;18.444;2022-09-12T11:58:42;17.50;1.00
17146;DHT22;8688;54.444;18.444;2022-09-12T12:01:16;17.10;1.00
17146;DHT22;8688;54.444;18.444;2022-09-12T12:03:46;17.00;1.00
17146;DHT22;8688;54.444;18.444;2022-09-12T12:06:16;17.20;1.00
17146;DHT22;8688;54.444;18.444;2022-09-12T12:08:45;17.40;1.00
17146;DHT22;8688;54.444;18.444;2022-09-12T12:11:15;17.70;1.00
17146;DHT22;8688;54.444;18.444;2022-09-12T12:13:53;17.90;1.00
17146;DHT22;8688;54.444;18.444;2022-09-12T12:16:25;17.80;1.00
17146;DHT22;8688;54.444;18.444;2022-09-12T12:18:56;17.90;1.00
17146;DHT22;8688;54.444;18.444;2022-09-12T12:21:35;18.10;1.00
17146;DHT22;8688;54.444;18.444;2022-09-12T12:24:13;18.50;1.00
17146;DHT22;8688;54.444;18.444;2022-09-12T12:26:56;18.30;1.00
17146;DHT22;8688;54.444;18.444;2022-09-12T12:29:41;17.80;1.00
17146;DHT22;8688;54.444;18.444;2022-09-12T12:32:26;17.60;1.00
17146;DHT22;8688;54.444;18.444;2022-09-12T12:37:59;17.50;1.00
17146;DHT22;8688;54.444;18.444;2022-09-12T12:40:29;17.80;1.00
17146;DHT22;8688;54.444;18.444;2022-09-12T12:43:04;18.10;1.00
17146;DHT22;8688;54.444;18.444;2022-09-12T12:49:02;17.60;1.00
17146;DHT22;8688;54.444;18.444;2022-09-12T12:51:46;17.40;1.00
17146;DHT22;8688;54.444;18.444;2022-09-12T12:54:32;17.40;1.00
17146;DHT22;8688;54.444;18.444;2022-09-12T12:57:13;17.10;1.00
17146;DHT22;8688;54.444;18.444;2022-09-12T12:59:48;16.90;1.00
17146;DHT22;8688;54.444;18.444;2022-09-12T13:02:20;16.80;1.00
17146;DHT22;8688;54.444;18.444;2022-09-12T13:04:49;16.80;1.00
17146;DHT22;8688;54.444;18.444;2022-09-12T13:07:29;17.20;1.00
17146;DHT22;8688;54.444;18.444;2022-09-12T13:09:59;17.20;1.00
17146;DHT22;8688;54.444;18.444;2022-09-12T13:12:29;17.10;1.00
17146;DHT22;8688;54.444;18.444;2022-09-12T13:14:59;17.20;1.00
17146;DHT22;8688;54.444;18.444;2022-09-12T13:17:33;17.50;1.00
17146;DHT22;8688;54.444;18.444;2022-09-12T13:20:05;17.70;1.00
17146;DHT22;8688;54.444;18.444;2022-09-12T13:22:41;17.80;1.00
17146;DHT22;8688;54.444;18.444;2022-09-12T13:25:22;18.00;1.00
17146;DHT22;8688;54.444;18.444;2022-09-12T13:27:57;17.90;1.00
17146;DHT22;8688;54.444;18.444;2022-09-12T13:30:26;18.00;1.00
17146;DHT22;8688;54.444;18.444;2022-09-12T13:32:56;18.00;1.00
17146;DHT22;8688;54.444;18.444;2022-09-12T13:35:33;17.90;1.00
17146;DHT22;8688;54.444;18.444;2022-09-12T13:38:07;17.90;1.00
17146;DHT22;8688;54.444;18.444;2022-09-12T13:40:56;17.90;1.00
17146;DHT22;8688;54.444;18.444;2022-09-12T13:43:36;18.10;1.00
17146;DHT22;8688;54.444;18.444;2022-09-12T13:46:05;18.20;1.00
17146;DHT22;8688;54.444;18.444;2022-09-12T13:48:34;18.00;1.00
17146;DHT22;8688;54.444;18.444;2022-09-12T13:51:02;17.80;1.00
17146;DHT22;8688;54.444;18.444;2022-09-12T13:53:42;17.50;1.00
17146;DHT22;8688;54.444;18.444;2022-09-12T13:56:17;17.60;1.00
17146;DHT22;8688;54.444;18.444;2022-09-12T13:58:52;17.70;1.00
17146;DHT22;8688;54.444;18.444;2022-09-12T14:01:22;17.80;1.00
17146;DHT22;8688;54.444;18.444;2022-09-12T14:03:50;17.80;1.00
17146;DHT22;8688;54.444;18.444;2022-09-12T14:06:42;17.80;1.00
17146;DHT22;8688;54.444;18.444;2022-09-12T14:09:13;17.90;1.00
17146;DHT22;8688;54.444;18.444;2022-09-12T14:11:43;18.00;1.00
17146;DHT22;8688;54.444;18.444;2022-09-12T14:14:27;18.00;1.00
17146;DHT22;8688;54.444;18.444;2022-09-12T14:16:56;18.00;1.00
17146;DHT22;8688;54.444;18.444;2022-09-12T14:19:24;17.90;1.00
17146;DHT22;8688;54.444;18.444;2022-09-12T14:21:52;18.00;1.00
17146;DHT22;8688;54.444;18.444;2022-09-12T14:24:20;18.10;1.00
17146;DHT22;8688;54.444;18.444;2022-09-12T14:26:52;17.70;1.00
17146;DHT22;8688;54.444;18.444;2022-09-12T14:29:22;17.50;1.00
17146;DHT22;8688;54.444;18.444;2022-09-12T14:32:00;17.70;1.00
17146;DHT22;8688;54.444;18.444;2022-09-12T14:34:28;17.80;1.00
17146;DHT22;8688;54.444;18.444;2022-09-12T14:36:56;17.80;1.00
17146;DHT22;8688;54.444;18.444;2022-09-12T14:39:28;17.70;1.00
17146;DHT22;8688;54.444;18.444;2022-09-12T14:42:04;17.50;1.00
17146;DHT22;8688;54.444;18.444;2022-09-12T14:44:33;17.70;1.00
17146;DHT22;8688;54.444;18.444;2022-09-12T14:47:11;17.70;1.00
17146;DHT22;8688;54.444;18.444;2022-09-12T14:49:40;17.30;1.00
17146;DHT22;8688;54.444;18.444;2022-09-12T14:52:22;17.00;1.00
17146;DHT22;8688;54.444;18.444;2022-09-12T14:54:58;16.80;1.00
17146;DHT22;8688;54.444;18.444;2022-09-12T14:57:46;16.60;1.00
17146;DHT22;8688;54.444;18.444;2022-09-12T15:00:19;16.50;1.00
17146;DHT22;8688;54.444;18.444;2022-09-12T15:02:49;16.40;1.00
17146;DHT22;8688;54.444;18.444;2022-09-12T15:05:25;16.40;1.00
17146;DHT22;8688;54.444;18.444;2022-09-12T15:07:59;16.30;1.00
17146;DHT22;8688;54.444;18.444;2022-09-12T15:10:29;16.20;1.00
17146;DHT22;8688;54.444;18.444;2022-09-12T15:13:17;16.00;1.00
17146;DHT22;8688;54.444;18.444;2022-09-12T15:15:47;16.00;1.00
17146;DHT22;8688;54.444;18.444;2022-09-12T15:18:15;16.00;1.00
17146;DHT22;8688;54.444;18.444;2022-09-12T15:20:44;16.30;1.00
17146;DHT22;8688;54.444;18.444;2022-09-12T15:23:17;16.60;1.00
17146;DHT22;8688;54.444;18.444;2022-09-12T15:25:45;16.70;1.00
17146;DHT22;8688;54.444;18.444;2022-09-12T15:28:18;16.80;1.00
17146;DHT22;8688;54.444;18.444;2022-09-12T15:30:47;16.90;1.00
17146;DHT22;8688;54.444;18.444;2022-09-12T15:33:16;16.60;1.00
17146;DHT22;8688;54.444;18.444;2022-09-12T15:35:44;16.40;1.00
17146;DHT22;8688;54.444;18.444;2022-09-12T15:38:13;16.20;1.00
17146;DHT22;8688;54.444;18.444;2022-09-12T15:40:41;16.20;1.00
17146;DHT22;8688;54.444;18.444;2022-09-12T15:43:10;16.20;1.00
17146;DHT22;8688;54.444;18.444;2022-09-12T15:45:41;16.10;1.00
17146;DHT22;8688;54.444;18.444;2022-09-12T15:48:09;16.10;1.00
17146;DHT22;8688;54.444;18.444;2022-09-12T15:50:36;16.00;1.00
17146;DHT22;8688;54.444;18.444;2022-09-12T15:53:05;15.80;1.00
17146;DHT22;8688;54.444;18.444;2022-09-12T15:55:34;15.60;1.00
17146;DHT22;8688;54.444;18.444;2022-09-12T15:58:02;15.60;99.00
17146;DHT22;8688;54.444;18.444;2022-09-12T16:00:30;15.50;99.90
17146;DHT22;8688;54.444;18.444;2022-09-12T16:03:00;15.30;99.90
17146;DHT22;8688;54.444;18.444;2022-09-12T16:05:29;15.40;99.90
17146;DHT22;8688;54.444;18.444;2022-09-12T16:07:58;15.40;99.90
17146;DHT22;8688;54.444;18.444;2022-09-12T16:10:29;15.40;1.00
17146;DHT22;8688;54.444;18.444;2022-09-12T16:12:57;15.40;1.00
17146;DHT22;8688;54.444;18.444;2022-09-12T16:15:25;15.30;1.00
17146;DHT22;8688;54.444;18.444;2022-09-12T16:17:52;15.20;1.00
17146;DHT22;8688;54.444;18.444;2022-09-12T16:20:21;15.10;14.70
17146;DHT22;8688;54.444;18.444;2022-09-12T16:22:49;15.00;99.90
17146;DHT22;8688;54.444;18.444;2022-09-12T16:25:17;15.00;1.00
17146;DHT22;8688;54.444;18.444;2022-09-12T16:27:44;14.90;1.00